Domov               UVHVVR             MKGP            O straneh              
ZDRAVSTVENO VARSTVO RASTLIN
  MREŽA AGROMET. POSTAJ
 ► PROGNOSTIČNA OBVESTILA
AGROMETEOROLOŠKI PODATKI -
ARSO
OBVLADOVANJE TVEGANJ ZARADI
NEUGODNIH VREMENSKIH RAZMER
  ► NARAVNE NESREČE
  ► SUŠA/MOČA
  ► NAMAKANJE
  ► ŽLED (gozdarstvo)
KARTOGRAFSKI PRIKAZI
SPLETNE POVEZAVE
PROJEKTI IN PUBLIKACIJE

AGROMETEOROLOŠKA MREŽA: VREMENSKE POSTAJE IN FENOLOŠKA OPAZOVANJA

Pregled podatkov za lokacijo Litmerk, meteorološka postaja 27388

Pregled senzorjev na lokaciji

ID Ime Zadnja
vrednost
Datum
zadnje
spremembe
Tip
senzorja
1457 Omočenost lista (U) 0 U 18.7.2018 00:30 A730WET
953 Padavine (mm) 0 mm 18.7.2018 00:30 Generic 0.2 mm
1459 Relativna vlaga 2 m (% RH) 74,63 % RH 18.7.2018 00:30 Generic 0 - 100 %
1458 Temperatura 2 m (°C) 18,41 °C 18.7.2018 00:30 Generic -40 - +60 °C

Pregled podatkov zadnjih 24 ur

Zap.
št.
Datum in čas Litmerk
Omočenost
lista
Padavine Relativna
vlaga
2
m
Temperatura
2
m
1 18.7.2018 00:30
2 18.7.2018 00:00
3 17.7.2018 23:30 0 0 74,6 18,4
4 17.7.2018 23:00 0 0 72,6 19,1
5 17.7.2018 22:30 0 0 68,6 19,9
6 17.7.2018 22:00 0 0 63,2 20,5
7 17.7.2018 21:30 0 0 52,5 21,4
8 17.7.2018 21:00 0 0 64 21,4
9 17.7.2018 20:30 0 0 51,3 22,5
10 17.7.2018 20:00 0 0 44,5 23,2
11 17.7.2018 19:30 0 0 45,4 23,6
12 17.7.2018 19:00 0 0 49,2 24,1
13 17.7.2018 18:30 0 0 48,5 25,1
14 17.7.2018 18:00 0 0 47,3 25,8
15 17.7.2018 17:30 0 0 44,3 26,2
16 17.7.2018 17:00 0 0 42,6 26
17 17.7.2018 16:30 0 0 41,5 25,9
18 17.7.2018 16:00 0 0 43 25,7
19 17.7.2018 15:30 0 0 43,8 25,7
20 17.7.2018 15:00 0 0 53 26,2
21 17.7.2018 14:30 0 0 48,3 26,2
22 17.7.2018 14:00 0 0 56,2 23,3
23 17.7.2018 13:30 6 0,2 74,6 20
24 17.7.2018 13:00 1 0 63,5 25,4
25 17.7.2018 12:30 0 0 50,5 25,2
26 17.7.2018 12:00 0 0 50,7 26,1
27 17.7.2018 11:30 0 0 53,5 25,6
28 17.7.2018 11:00 0 0 57,3 25,3
29 17.7.2018 10:30 0 0 55,9 25
30 17.7.2018 10:00 0 0 56,5 23,8
31 17.7.2018 09:30 0 0 58,9 23,2
32 17.7.2018 09:00 0 0 63,5 22,4
33 17.7.2018 08:30 0 0 66,2 21,3
34 17.7.2018 08:00 0 0 71,9 20,1
35 17.7.2018 07:30 0 0 80,7 19,2
36 17.7.2018 07:00 0 0 82,1 18
37 17.7.2018 06:30 0 0 86,3 17,2
38 17.7.2018 06:00 0 0 89,2 16,1
39 17.7.2018 05:30 4 0 94,4 15,8
40 17.7.2018 05:00 10 0 97,2 15,5
41 17.7.2018 04:30 10 0 94 16
42 17.7.2018 04:00 9 0 92 16,5
43 17.7.2018 03:30 10 0 93,1 16,2
44 17.7.2018 03:00 7 0 94,4 16,4
45 17.7.2018 02:30 7 0 95 16,5
46 17.7.2018 02:00 9 0 96,9 16,4
47 17.7.2018 01:30 10 0 96,8 16,4
48 17.7.2018 01:00 9 0 98,4 16,4
© 2011 Ministrstvo za kmetijstvo, gozdarstvo in prehrano. Vse pravice pridržane.